sensor_id;sensor_type;location;lat;lon;timestamp;temperature;humidity
5086;DHT22;4715;51.660;7.082;2022-08-05T00:00:49;22.30;99.90
5086;DHT22;4715;51.660;7.082;2022-08-05T00:03:11;22.30;99.90
5086;DHT22;4715;51.660;7.082;2022-08-05T00:05:34;22.30;99.90
5086;DHT22;4715;51.660;7.082;2022-08-05T00:07:56;22.30;99.90
5086;DHT22;4715;51.660;7.082;2022-08-05T00:10:18;22.20;99.90
5086;DHT22;4715;51.660;7.082;2022-08-05T00:12:40;22.20;99.90
5086;DHT22;4715;51.660;7.082;2022-08-05T00:15:02;22.20;99.90
5086;DHT22;4715;51.660;7.082;2022-08-05T00:17:24;22.20;99.90
5086;DHT22;4715;51.660;7.082;2022-08-05T00:19:46;22.20;99.90
5086;DHT22;4715;51.660;7.082;2022-08-05T00:22:09;22.20;99.90
5086;DHT22;4715;51.660;7.082;2022-08-05T00:24:31;22.20;99.90
5086;DHT22;4715;51.660;7.082;2022-08-05T00:26:53;22.20;99.90
5086;DHT22;4715;51.660;7.082;2022-08-05T00:29:15;22.20;99.90
5086;DHT22;4715;51.660;7.082;2022-08-05T00:31:37;22.10;99.90
5086;DHT22;4715;51.660;7.082;2022-08-05T00:33:59;22.10;99.90
5086;DHT22;4715;51.660;7.082;2022-08-05T00:36:20;22.10;99.90
5086;DHT22;4715;51.660;7.082;2022-08-05T00:38:45;22.10;99.90
5086;DHT22;4715;51.660;7.082;2022-08-05T00:41:07;22.10;99.90
5086;DHT22;4715;51.660;7.082;2022-08-05T00:43:29;22.10;99.90
5086;DHT22;4715;51.660;7.082;2022-08-05T00:45:51;22.10;99.90
5086;DHT22;4715;51.660;7.082;2022-08-05T00:48:14;22.10;99.90
5086;DHT22;4715;51.660;7.082;2022-08-05T00:50:39;22.10;99.90
5086;DHT22;4715;51.660;7.082;2022-08-05T00:53:01;22.00;99.90
5086;DHT22;4715;51.660;7.082;2022-08-05T00:55:24;22.00;99.90
5086;DHT22;4715;51.660;7.082;2022-08-05T00:57:46;22.10;99.90
5086;DHT22;4715;51.660;7.082;2022-08-05T01:00:09;22.00;99.90
5086;DHT22;4715;51.660;7.082;2022-08-05T01:02:39;22.00;99.90
5086;DHT22;4715;51.660;7.082;2022-08-05T01:05:01;22.00;99.90
5086;DHT22;4715;51.660;7.082;2022-08-05T01:07:23;21.90;99.90
5086;DHT22;4715;51.660;7.082;2022-08-05T01:09:45;21.90;99.90
5086;DHT22;4715;51.660;7.082;2022-08-05T01:12:12;21.80;99.90
5086;DHT22;4715;51.660;7.082;2022-08-05T01:14:39;21.80;99.90
5086;DHT22;4715;51.660;7.082;2022-08-05T01:17:04;21.70;99.90
5086;DHT22;4715;51.660;7.082;2022-08-05T01:19:34;21.60;99.90
5086;DHT22;4715;51.660;7.082;2022-08-05T01:22:14;21.60;99.90
5086;DHT22;4715;51.660;7.082;2022-08-05T01:25:00;21.50;99.90
5086;DHT22;4715;51.660;7.082;2022-08-05T01:30:15;21.40;99.90
5086;DHT22;4715;51.660;7.082;2022-08-05T01:32:40;21.40;99.90
5086;DHT22;4715;51.660;7.082;2022-08-05T01:35:08;21.40;99.90
5086;DHT22;4715;51.660;7.082;2022-08-05T01:37:34;21.40;99.90
5086;DHT22;4715;51.660;7.082;2022-08-05T01:39:57;21.40;99.90
5086;DHT22;4715;51.660;7.082;2022-08-05T01:42:22;21.40;99.90
5086;DHT22;4715;51.660;7.082;2022-08-05T01:44:45;21.40;99.90
5086;DHT22;4715;51.660;7.082;2022-08-05T01:47:09;21.40;99.90
5086;DHT22;4715;51.660;7.082;2022-08-05T01:49:33;21.40;99.90
5086;DHT22;4715;51.660;7.082;2022-08-05T01:51:58;21.40;99.90
5086;DHT22;4715;51.660;7.082;2022-08-05T01:54:23;21.40;99.90
5086;DHT22;4715;51.660;7.082;2022-08-05T01:56:47;21.40;99.90
5086;DHT22;4715;51.660;7.082;2022-08-05T01:59:14;21.30;99.90
5086;DHT22;4715;51.660;7.082;2022-08-05T02:01:37;21.30;99.90
5086;DHT22;4715;51.660;7.082;2022-08-05T02:04:02;21.30;99.90
5086;DHT22;4715;51.660;7.082;2022-08-05T02:06:25;21.20;99.90
5086;DHT22;4715;51.660;7.082;2022-08-05T02:08:47;21.20;99.90
5086;DHT22;4715;51.660;7.082;2022-08-05T02:11:11;21.20;99.90
5086;DHT22;4715;51.660;7.082;2022-08-05T02:13:37;21.30;99.90
5086;DHT22;4715;51.660;7.082;2022-08-05T02:16:03;21.30;99.90
5086;DHT22;4715;51.660;7.082;2022-08-05T02:18:32;21.30;99.90
5086;DHT22;4715;51.660;7.082;2022-08-05T02:21:02;21.20;99.90
5086;DHT22;4715;51.660;7.082;2022-08-05T02:23:30;21.20;99.90
5086;DHT22;4715;51.660;7.082;2022-08-05T02:25:54;21.10;99.90
5086;DHT22;4715;51.660;7.082;2022-08-05T02:28:22;21.10;99.90
5086;DHT22;4715;51.660;7.082;2022-08-05T02:30:47;21.00;99.90
5086;DHT22;4715;51.660;7.082;2022-08-05T02:33:15;21.00;99.90
5086;DHT22;4715;51.660;7.082;2022-08-05T02:35:38;20.80;99.90
5086;DHT22;4715;51.660;7.082;2022-08-05T02:38:04;20.70;99.90
5086;DHT22;4715;51.660;7.082;2022-08-05T02:40:27;20.60;99.90
5086;DHT22;4715;51.660;7.082;2022-08-05T02:42:49;20.50;99.90
5086;DHT22;4715;51.660;7.082;2022-08-05T02:45:13;20.50;99.90
5086;DHT22;4715;51.660;7.082;2022-08-05T02:47:37;20.50;99.90
5086;DHT22;4715;51.660;7.082;2022-08-05T02:49:59;20.50;99.90
5086;DHT22;4715;51.660;7.082;2022-08-05T02:52:23;20.60;99.90
5086;DHT22;4715;51.660;7.082;2022-08-05T02:54:47;20.60;99.90
5086;DHT22;4715;51.660;7.082;2022-08-05T02:57:12;20.60;99.90
5086;DHT22;4715;51.660;7.082;2022-08-05T02:59:35;20.60;99.90
5086;DHT22;4715;51.660;7.082;2022-08-05T03:01:59;20.70;99.90
5086;DHT22;4715;51.660;7.082;2022-08-05T03:04:21;20.70;99.90
5086;DHT22;4715;51.660;7.082;2022-08-05T03:06:44;20.80;99.90
5086;DHT22;4715;51.660;7.082;2022-08-05T03:09:06;20.80;99.90
5086;DHT22;4715;51.660;7.082;2022-08-05T03:11:30;20.80;99.90
5086;DHT22;4715;51.660;7.082;2022-08-05T03:13:52;20.80;99.90
5086;DHT22;4715;51.660;7.082;2022-08-05T03:16:15;20.80;99.90
5086;DHT22;4715;51.660;7.082;2022-08-05T03:18:36;20.80;99.90
5086;DHT22;4715;51.660;7.082;2022-08-05T03:20:58;20.80;99.90
5086;DHT22;4715;51.660;7.082;2022-08-05T03:23:20;20.70;99.90
5086;DHT22;4715;51.660;7.082;2022-08-05T03:25:42;20.70;99.90
5086;DHT22;4715;51.660;7.082;2022-08-05T03:28:07;20.70;99.90
5086;DHT22;4715;51.660;7.082;2022-08-05T03:30:29;20.70;99.90
5086;DHT22;4715;51.660;7.082;2022-08-05T03:32:53;20.70;99.90
5086;DHT22;4715;51.660;7.082;2022-08-05T03:35:15;20.70;99.90
5086;DHT22;4715;51.660;7.082;2022-08-05T03:37:37;20.70;99.90
5086;DHT22;4715;51.660;7.082;2022-08-05T03:40:01;20.60;99.90
5086;DHT22;4715;51.660;7.082;2022-08-05T03:42:28;20.60;99.90
5086;DHT22;4715;51.660;7.082;2022-08-05T03:44:52;20.50;99.90
5086;DHT22;4715;51.660;7.082;2022-08-05T03:47:13;20.50;99.90
5086;DHT22;4715;51.660;7.082;2022-08-05T03:49:35;20.40;99.90
5086;DHT22;4715;51.660;7.082;2022-08-05T03:52:00;20.40;99.90
5086;DHT22;4715;51.660;7.082;2022-08-05T03:54:30;20.40;99.90
5086;DHT22;4715;51.660;7.082;2022-08-05T03:56:53;20.40;99.90
5086;DHT22;4715;51.660;7.082;2022-08-05T03:59:19;20.40;99.90
5086;DHT22;4715;51.660;7.082;2022-08-05T04:01:46;20.40;99.90
5086;DHT22;4715;51.660;7.082;2022-08-05T04:04:11;20.40;99.90
5086;DHT22;4715;51.660;7.082;2022-08-05T04:06:34;20.40;99.90
5086;DHT22;4715;51.660;7.082;2022-08-05T04:08:56;20.40;99.90
5086;DHT22;4715;51.660;7.082;2022-08-05T04:11:19;20.40;99.90
5086;DHT22;4715;51.660;7.082;2022-08-05T04:13:41;20.50;99.90
5086;DHT22;4715;51.660;7.082;2022-08-05T04:16:03;20.50;99.90
5086;DHT22;4715;51.660;7.082;2022-08-05T04:18:27;20.50;99.90
5086;DHT22;4715;51.660;7.082;2022-08-05T04:20:52;20.50;99.90
5086;DHT22;4715;51.660;7.082;2022-08-05T04:23:14;20.40;99.90
5086;DHT22;4715;51.660;7.082;2022-08-05T04:25:36;20.20;99.90
5086;DHT22;4715;51.660;7.082;2022-08-05T04:27:58;20.10;99.90
5086;DHT22;4715;51.660;7.082;2022-08-05T04:30:20;19.90;99.90
5086;DHT22;4715;51.660;7.082;2022-08-05T04:32:41;19.80;99.90
5086;DHT22;4715;51.660;7.082;2022-08-05T04:35:06;19.80;99.90
5086;DHT22;4715;51.660;7.082;2022-08-05T04:37:28;19.80;99.90
5086;DHT22;4715;51.660;7.082;2022-08-05T04:39:52;19.90;99.90
5086;DHT22;4715;51.660;7.082;2022-08-05T04:42:14;19.90;99.90
5086;DHT22;4715;51.660;7.082;2022-08-05T04:44:35;20.00;99.90
5086;DHT22;4715;51.660;7.082;2022-08-05T04:46:58;20.00;99.90
5086;DHT22;4715;51.660;7.082;2022-08-05T04:49:19;20.10;99.90
5086;DHT22;4715;51.660;7.082;2022-08-05T04:51:43;20.10;99.90
5086;DHT22;4715;51.660;7.082;2022-08-05T04:54:05;20.20;99.90
5086;DHT22;4715;51.660;7.082;2022-08-05T04:56:27;20.20;99.90
5086;DHT22;4715;51.660;7.082;2022-08-05T04:58:49;20.20;99.90
5086;DHT22;4715;51.660;7.082;2022-08-05T05:01:10;20.20;99.90
5086;DHT22;4715;51.660;7.082;2022-08-05T05:03:32;20.20;99.90
5086;DHT22;4715;51.660;7.082;2022-08-05T05:05:54;20.20;99.90
5086;DHT22;4715;51.660;7.082;2022-08-05T05:08:17;20.20;99.90
5086;DHT22;4715;51.660;7.082;2022-08-05T05:10:41;20.20;99.90
5086;DHT22;4715;51.660;7.082;2022-08-05T05:13:03;20.30;99.90
5086;DHT22;4715;51.660;7.082;2022-08-05T05:15:25;20.30;99.90
5086;DHT22;4715;51.660;7.082;2022-08-05T05:17:47;20.30;99.90
5086;DHT22;4715;51.660;7.082;2022-08-05T05:20:10;20.30;99.90
5086;DHT22;4715;51.660;7.082;2022-08-05T05:22:32;20.30;99.90
5086;DHT22;4715;51.660;7.082;2022-08-05T05:24:56;20.30;99.90
5086;DHT22;4715;51.660;7.082;2022-08-05T05:27:17;20.30;99.90
5086;DHT22;4715;51.660;7.082;2022-08-05T05:29:39;20.30;99.90
5086;DHT22;4715;51.660;7.082;2022-08-05T05:32:01;20.30;99.90
5086;DHT22;4715;51.660;7.082;2022-08-05T05:34:23;20.30;99.90
5086;DHT22;4715;51.660;7.082;2022-08-05T05:36:46;20.30;99.90
5086;DHT22;4715;51.660;7.082;2022-08-05T05:39:08;20.30;99.90
5086;DHT22;4715;51.660;7.082;2022-08-05T05:41:31;20.30;99.90
5086;DHT22;4715;51.660;7.082;2022-08-05T05:43:53;20.20;99.90
5086;DHT22;4715;51.660;7.082;2022-08-05T05:46:15;20.20;99.90
5086;DHT22;4715;51.660;7.082;2022-08-05T05:48:37;20.10;99.90
5086;DHT22;4715;51.660;7.082;2022-08-05T05:51:01;20.10;99.90
5086;DHT22;4715;51.660;7.082;2022-08-05T05:53:23;20.10;99.90
5086;DHT22;4715;51.660;7.082;2022-08-05T05:55:45;20.10;99.90
5086;DHT22;4715;51.660;7.082;2022-08-05T05:58:09;20.10;99.90
5086;DHT22;4715;51.660;7.082;2022-08-05T06:00:31;20.10;99.90
5086;DHT22;4715;51.660;7.082;2022-08-05T06:02:53;20.10;99.90
5086;DHT22;4715;51.660;7.082;2022-08-05T06:05:15;20.10;99.90
5086;DHT22;4715;51.660;7.082;2022-08-05T06:07:38;20.10;99.90
5086;DHT22;4715;51.660;7.082;2022-08-05T06:10:00;20.00;99.90
5086;DHT22;4715;51.660;7.082;2022-08-05T06:12:22;20.00;99.90
5086;DHT22;4715;51.660;7.082;2022-08-05T06:14:46;20.00;99.90
5086;DHT22;4715;51.660;7.082;2022-08-05T06:17:07;20.00;99.90
5086;DHT22;4715;51.660;7.082;2022-08-05T06:19:29;20.00;99.90
5086;DHT22;4715;51.660;7.082;2022-08-05T06:21:51;20.00;99.90
5086;DHT22;4715;51.660;7.082;2022-08-05T06:24:13;20.00;99.90
5086;DHT22;4715;51.660;7.082;2022-08-05T06:26:35;19.90;99.90
5086;DHT22;4715;51.660;7.082;2022-08-05T06:28:57;19.70;99.90
5086;DHT22;4715;51.660;7.082;2022-08-05T06:31:21;19.60;99.90
5086;DHT22;4715;51.660;7.082;2022-08-05T06:33:43;19.50;99.90
5086;DHT22;4715;51.660;7.082;2022-08-05T06:36:06;19.40;99.90
5086;DHT22;4715;51.660;7.082;2022-08-05T06:38:29;19.40;99.90
5086;DHT22;4715;51.660;7.082;2022-08-05T06:40:52;19.40;99.90
5086;DHT22;4715;51.660;7.082;2022-08-05T06:43:13;19.50;99.90
5086;DHT22;4715;51.660;7.082;2022-08-05T06:45:35;19.50;99.90
5086;DHT22;4715;51.660;7.082;2022-08-05T06:47:59;19.60;99.90
5086;DHT22;4715;51.660;7.082;2022-08-05T06:50:21;19.60;99.90
5086;DHT22;4715;51.660;7.082;2022-08-05T06:52:42;19.70;99.90
5086;DHT22;4715;51.660;7.082;2022-08-05T06:55:05;19.70;99.90
5086;DHT22;4715;51.660;7.082;2022-08-05T06:57:27;19.70;99.90
5086;DHT22;4715;51.660;7.082;2022-08-05T06:59:49;19.80;99.90
5086;DHT22;4715;51.660;7.082;2022-08-05T07:02:11;19.80;99.90
5086;DHT22;4715;51.660;7.082;2022-08-05T07:04:34;19.80;99.90
5086;DHT22;4715;51.660;7.082;2022-08-05T07:06:57;19.80;99.90
5086;DHT22;4715;51.660;7.082;2022-08-05T07:09:19;19.80;99.90
5086;DHT22;4715;51.660;7.082;2022-08-05T07:11:41;19.70;99.90
5086;DHT22;4715;51.660;7.082;2022-08-05T07:14:03;19.50;99.90
5086;DHT22;4715;51.660;7.082;2022-08-05T07:16:43;19.30;99.90
5086;DHT22;4715;51.660;7.082;2022-08-05T07:19:10;19.30;99.90
5086;DHT22;4715;51.660;7.082;2022-08-05T07:21:34;19.30;99.90
5086;DHT22;4715;51.660;7.082;2022-08-05T07:23:56;19.30;99.90
5086;DHT22;4715;51.660;7.082;2022-08-05T07:26:18;19.30;99.90
5086;DHT22;4715;51.660;7.082;2022-08-05T07:28:40;19.40;99.90
5086;DHT22;4715;51.660;7.082;2022-08-05T07:31:02;19.40;99.90
5086;DHT22;4715;51.660;7.082;2022-08-05T07:33:25;19.50;99.90
5086;DHT22;4715;51.660;7.082;2022-08-05T07:35:48;19.50;99.90
5086;DHT22;4715;51.660;7.082;2022-08-05T07:38:11;19.50;99.90
5086;DHT22;4715;51.660;7.082;2022-08-05T07:40:33;19.50;99.90
5086;DHT22;4715;51.660;7.082;2022-08-05T07:42:55;19.50;99.90
5086;DHT22;4715;51.660;7.082;2022-08-05T07:45:17;19.60;99.90
5086;DHT22;4715;51.660;7.082;2022-08-05T07:47:40;19.60;99.90
5086;DHT22;4715;51.660;7.082;2022-08-05T07:50:03;19.60;99.90
5086;DHT22;4715;51.660;7.082;2022-08-05T07:52:25;19.60;99.90
5086;DHT22;4715;51.660;7.082;2022-08-05T07:54:49;19.60;99.90
5086;DHT22;4715;51.660;7.082;2022-08-05T07:57:11;19.60;99.90
5086;DHT22;4715;51.660;7.082;2022-08-05T07:59:33;19.60;99.90
5086;DHT22;4715;51.660;7.082;2022-08-05T08:01:55;19.60;99.90
5086;DHT22;4715;51.660;7.082;2022-08-05T08:04:17;19.60;99.90
5086;DHT22;4715;51.660;7.082;2022-08-05T08:06:39;19.60;99.90
5086;DHT22;4715;51.660;7.082;2022-08-05T08:09:01;19.60;99.90
5086;DHT22;4715;51.660;7.082;2022-08-05T08:11:25;19.50;99.90
5086;DHT22;4715;51.660;7.082;2022-08-05T08:13:48;19.50;99.90
5086;DHT22;4715;51.660;7.082;2022-08-05T08:16:12;19.50;99.90
5086;DHT22;4715;51.660;7.082;2022-08-05T08:18:34;19.50;99.90
5086;DHT22;4715;51.660;7.082;2022-08-05T08:20:56;19.40;99.90
5086;DHT22;4715;51.660;7.082;2022-08-05T08:23:18;19.50;99.90
5086;DHT22;4715;51.660;7.082;2022-08-05T08:25:39;19.50;99.90
5086;DHT22;4715;51.660;7.082;2022-08-05T08:28:05;19.50;99.90
5086;DHT22;4715;51.660;7.082;2022-08-05T08:30:27;19.50;99.90
5086;DHT22;4715;51.660;7.082;2022-08-05T08:32:48;19.50;99.90
5086;DHT22;4715;51.660;7.082;2022-08-05T08:35:11;19.50;99.90
5086;DHT22;4715;51.660;7.082;2022-08-05T08:37:33;19.50;99.90
5086;DHT22;4715;51.660;7.082;2022-08-05T08:39:55;19.50;99.90
5086;DHT22;4715;51.660;7.082;2022-08-05T08:42:17;19.50;99.90
5086;DHT22;4715;51.660;7.082;2022-08-05T08:44:41;19.50;99.90
5086;DHT22;4715;51.660;7.082;2022-08-05T08:47:05;19.60;99.90
5086;DHT22;4715;51.660;7.082;2022-08-05T08:49:30;19.60;99.90
5086;DHT22;4715;51.660;7.082;2022-08-05T08:51:58;19.60;99.90
5086;DHT22;4715;51.660;7.082;2022-08-05T08:54:22;19.50;99.90
5086;DHT22;4715;51.660;7.082;2022-08-05T08:56:44;19.50;99.90
5086;DHT22;4715;51.660;7.082;2022-08-05T08:59:06;19.50;99.90
5086;DHT22;4715;51.660;7.082;2022-08-05T09:01:31;19.60;99.90
5086;DHT22;4715;51.660;7.082;2022-08-05T09:03:54;19.60;99.90
5086;DHT22;4715;51.660;7.082;2022-08-05T09:06:16;19.50;99.90
5086;DHT22;4715;51.660;7.082;2022-08-05T09:08:38;19.50;99.90
5086;DHT22;4715;51.660;7.082;2022-08-05T09:11:00;19.50;99.90
5086;DHT22;4715;51.660;7.082;2022-08-05T09:13:22;19.40;99.90
5086;DHT22;4715;51.660;7.082;2022-08-05T09:15:44;19.30;99.90
5086;DHT22;4715;51.660;7.082;2022-08-05T09:18:09;19.30;99.90
5086;DHT22;4715;51.660;7.082;2022-08-05T09:20:31;19.40;99.90
5086;DHT22;4715;51.660;7.082;2022-08-05T09:23:06;19.40;99.90
5086;DHT22;4715;51.660;7.082;2022-08-05T09:25:30;19.50;99.90
5086;DHT22;4715;51.660;7.082;2022-08-05T09:27:52;19.50;99.90
5086;DHT22;4715;51.660;7.082;2022-08-05T09:30:16;19.50;99.90
5086;DHT22;4715;51.660;7.082;2022-08-05T09:32:38;19.50;99.90
5086;DHT22;4715;51.660;7.082;2022-08-05T09:35:08;19.50;99.90
5086;DHT22;4715;51.660;7.082;2022-08-05T09:37:31;19.60;99.90
5086;DHT22;4715;51.660;7.082;2022-08-05T09:39:53;19.60;99.90
5086;DHT22;4715;51.660;7.082;2022-08-05T09:42:17;19.60;99.90
5086;DHT22;4715;51.660;7.082;2022-08-05T09:44:41;19.50;99.90
5086;DHT22;4715;51.660;7.082;2022-08-05T09:47:10;19.60;99.90
5086;DHT22;4715;51.660;7.082;2022-08-05T09:49:32;19.60;99.90
5086;DHT22;4715;51.660;7.082;2022-08-05T09:51:56;19.60;99.90
5086;DHT22;4715;51.660;7.082;2022-08-05T09:54:29;19.70;99.90
5086;DHT22;4715;51.660;7.082;2022-08-05T09:56:51;19.70;99.90
5086;DHT22;4715;51.660;7.082;2022-08-05T09:59:13;19.70;99.90
5086;DHT22;4715;51.660;7.082;2022-08-05T10:01:41;19.70;99.90
5086;DHT22;4715;51.660;7.082;2022-08-05T10:04:04;19.70;99.90
5086;DHT22;4715;51.660;7.082;2022-08-05T10:06:28;19.70;99.90
5086;DHT22;4715;51.660;7.082;2022-08-05T10:08:51;19.70;99.90
5086;DHT22;4715;51.660;7.082;2022-08-05T10:11:14;19.80;99.90
5086;DHT22;4715;51.660;7.082;2022-08-05T10:13:38;19.80;99.90
5086;DHT22;4715;51.660;7.082;2022-08-05T10:16:00;19.80;99.90
5086;DHT22;4715;51.660;7.082;2022-08-05T10:18:23;19.80;99.90
5086;DHT22;4715;51.660;7.082;2022-08-05T10:20:48;19.80;99.90
5086;DHT22;4715;51.660;7.082;2022-08-05T10:23:16;20.00;99.90
5086;DHT22;4715;51.660;7.082;2022-08-05T10:25:40;20.10;99.90
5086;DHT22;4715;51.660;7.082;2022-08-05T10:28:03;20.20;99.90
5086;DHT22;4715;51.660;7.082;2022-08-05T10:30:26;20.20;99.90
5086;DHT22;4715;51.660;7.082;2022-08-05T10:32:48;20.30;99.90
5086;DHT22;4715;51.660;7.082;2022-08-05T10:35:10;20.50;99.90
5086;DHT22;4715;51.660;7.082;2022-08-05T10:37:34;20.50;99.90
5086;DHT22;4715;51.660;7.082;2022-08-05T10:40:02;20.60;99.90
5086;DHT22;4715;51.660;7.082;2022-08-05T10:42:36;20.70;99.90
5086;DHT22;4715;51.660;7.082;2022-08-05T10:45:00;20.70;99.90
5086;DHT22;4715;51.660;7.082;2022-08-05T10:47:31;20.70;99.90
5086;DHT22;4715;51.660;7.082;2022-08-05T10:50:02;20.70;99.90
5086;DHT22;4715;51.660;7.082;2022-08-05T10:52:40;20.80;99.90
5086;DHT22;4715;51.660;7.082;2022-08-05T10:55:05;20.90;99.90
5086;DHT22;4715;51.660;7.082;2022-08-05T10:57:28;21.00;99.90
5086;DHT22;4715;51.660;7.082;2022-08-05T11:00:06;21.20;99.90
5086;DHT22;4715;51.660;7.082;2022-08-05T11:02:29;21.40;99.90
5086;DHT22;4715;51.660;7.082;2022-08-05T11:04:54;21.50;99.90
5086;DHT22;4715;51.660;7.082;2022-08-05T11:07:17;21.60;99.90
5086;DHT22;4715;51.660;7.082;2022-08-05T11:09:45;21.50;99.90
5086;DHT22;4715;51.660;7.082;2022-08-05T11:12:41;21.60;99.90
5086;DHT22;4715;51.660;7.082;2022-08-05T11:15:16;21.60;99.90
5086;DHT22;4715;51.660;7.082;2022-08-05T11:17:41;21.60;99.90
5086;DHT22;4715;51.660;7.082;2022-08-05T11:22:52;21.80;99.90
5086;DHT22;4715;51.660;7.082;2022-08-05T11:25:31;21.90;99.90
5086;DHT22;4715;51.660;7.082;2022-08-05T11:27:56;22.10;99.90
5086;DHT22;4715;51.660;7.082;2022-08-05T11:33:55;22.30;99.90
5086;DHT22;4715;51.660;7.082;2022-08-05T11:36:20;22.40;99.90
5086;DHT22;4715;51.660;7.082;2022-08-05T11:38:52;22.50;99.90
5086;DHT22;4715;51.660;7.082;2022-08-05T11:41:16;22.60;99.90
5086;DHT22;4715;51.660;7.082;2022-08-05T11:43:38;22.50;99.90
5086;DHT22;4715;51.660;7.082;2022-08-05T11:46:04;22.50;99.90
5086;DHT22;4715;51.660;7.082;2022-08-05T11:48:27;22.40;99.90
5086;DHT22;4715;51.660;7.082;2022-08-05T11:50:51;22.40;99.90
5086;DHT22;4715;51.660;7.082;2022-08-05T11:53:14;22.50;99.90
5086;DHT22;4715;51.660;7.082;2022-08-05T11:55:52;22.60;99.90
5086;DHT22;4715;51.660;7.082;2022-08-05T11:58:24;22.90;99.90
5086;DHT22;4715;51.660;7.082;2022-08-05T12:00:46;23.10;99.90
5086;DHT22;4715;51.660;7.082;2022-08-05T12:03:17;23.20;99.90
5086;DHT22;4715;51.660;7.082;2022-08-05T12:05:40;23.40;99.90
5086;DHT22;4715;51.660;7.082;2022-08-05T12:08:04;23.60;99.90
5086;DHT22;4715;51.660;7.082;2022-08-05T12:10:27;23.70;99.90
5086;DHT22;4715;51.660;7.082;2022-08-05T12:13:02;23.50;99.90
5086;DHT22;4715;51.660;7.082;2022-08-05T12:15:27;23.20;99.90
5086;DHT22;4715;51.660;7.082;2022-08-05T12:17:49;23.00;99.90
5086;DHT22;4715;51.660;7.082;2022-08-05T12:20:16;22.80;99.90
5086;DHT22;4715;51.660;7.082;2022-08-05T12:22:39;22.70;99.90
5086;DHT22;4715;51.660;7.082;2022-08-05T12:25:03;22.60;99.90
5086;DHT22;4715;51.660;7.082;2022-08-05T12:27:28;22.50;99.90
5086;DHT22;4715;51.660;7.082;2022-08-05T12:29:59;22.50;99.90
5086;DHT22;4715;51.660;7.082;2022-08-05T12:32:21;22.50;99.90
5086;DHT22;4715;51.660;7.082;2022-08-05T12:34:44;22.50;99.90
5086;DHT22;4715;51.660;7.082;2022-08-05T12:37:11;22.50;99.90
5086;DHT22;4715;51.660;7.082;2022-08-05T12:39:33;22.60;99.90
5086;DHT22;4715;51.660;7.082;2022-08-05T12:41:58;22.60;99.90
5086;DHT22;4715;51.660;7.082;2022-08-05T12:44:20;22.80;99.90
5086;DHT22;4715;51.660;7.082;2022-08-05T12:46:50;23.10;99.90
5086;DHT22;4715;51.660;7.082;2022-08-05T12:49:13;23.50;99.90
5086;DHT22;4715;51.660;7.082;2022-08-05T12:51:46;23.80;99.90
5086;DHT22;4715;51.660;7.082;2022-08-05T12:54:09;23.90;99.90
5086;DHT22;4715;51.660;7.082;2022-08-05T12:56:33;23.90;99.90
5086;DHT22;4715;51.660;7.082;2022-08-05T12:59:17;23.90;99.90
5086;DHT22;4715;51.660;7.082;2022-08-05T13:01:40;23.90;99.90
5086;DHT22;4715;51.660;7.082;2022-08-05T13:04:02;24.00;99.90
5086;DHT22;4715;51.660;7.082;2022-08-05T13:06:25;24.10;99.90
5086;DHT22;4715;51.660;7.082;2022-08-05T13:08:48;24.30;99.90
5086;DHT22;4715;51.660;7.082;2022-08-05T13:11:16;24.40;99.90
5086;DHT22;4715;51.660;7.082;2022-08-05T13:13:38;24.40;99.90
5086;DHT22;4715;51.660;7.082;2022-08-05T13:16:11;24.30;99.90
5086;DHT22;4715;51.660;7.082;2022-08-05T13:18:36;24.20;99.90
5086;DHT22;4715;51.660;7.082;2022-08-05T13:20:59;24.10;99.90
5086;DHT22;4715;51.660;7.082;2022-08-05T13:23:22;23.90;99.90
5086;DHT22;4715;51.660;7.082;2022-08-05T13:25:46;23.70;99.90
5086;DHT22;4715;51.660;7.082;2022-08-05T13:28:09;23.60;99.90
5086;DHT22;4715;51.660;7.082;2022-08-05T13:30:34;23.50;99.90
5086;DHT22;4715;51.660;7.082;2022-08-05T13:32:58;23.40;99.90
5086;DHT22;4715;51.660;7.082;2022-08-05T13:35:22;23.30;99.90
5086;DHT22;4715;51.660;7.082;2022-08-05T13:37:44;23.30;99.90
5086;DHT22;4715;51.660;7.082;2022-08-05T13:40:08;23.30;99.90
5086;DHT22;4715;51.660;7.082;2022-08-05T13:42:30;23.20;99.90
5086;DHT22;4715;51.660;7.082;2022-08-05T13:44:55;23.30;99.90
5086;DHT22;4715;51.660;7.082;2022-08-05T13:47:23;23.40;99.90
5086;DHT22;4715;51.660;7.082;2022-08-05T13:49:48;23.60;99.90
5086;DHT22;4715;51.660;7.082;2022-08-05T13:52:13;23.80;99.90
5086;DHT22;4715;51.660;7.082;2022-08-05T13:54:35;24.00;99.90
5086;DHT22;4715;51.660;7.082;2022-08-05T13:56:58;24.10;99.90
5086;DHT22;4715;51.660;7.082;2022-08-05T13:59:22;24.20;99.90
5086;DHT22;4715;51.660;7.082;2022-08-05T14:01:45;24.30;99.90
5086;DHT22;4715;51.660;7.082;2022-08-05T14:04:07;24.40;99.90
5086;DHT22;4715;51.660;7.082;2022-08-05T14:06:49;24.50;99.90
5086;DHT22;4715;51.660;7.082;2022-08-05T14:09:12;24.60;99.90
5086;DHT22;4715;51.660;7.082;2022-08-05T14:11:41;24.60;99.90
5086;DHT22;4715;51.660;7.082;2022-08-05T14:14:04;24.60;99.90
5086;DHT22;4715;51.660;7.082;2022-08-05T14:16:27;24.50;99.90
5086;DHT22;4715;51.660;7.082;2022-08-05T14:18:49;24.50;99.90
5086;DHT22;4715;51.660;7.082;2022-08-05T14:21:11;24.60;99.90
5086;DHT22;4715;51.660;7.082;2022-08-05T14:23:34;24.60;99.90
5086;DHT22;4715;51.660;7.082;2022-08-05T14:25:56;24.70;99.90
5086;DHT22;4715;51.660;7.082;2022-08-05T14:28:18;24.60;99.90
5086;DHT22;4715;51.660;7.082;2022-08-05T14:30:40;24.60;99.90
5086;DHT22;4715;51.660;7.082;2022-08-05T14:33:02;24.50;99.90
5086;DHT22;4715;51.660;7.082;2022-08-05T14:35:25;24.40;99.90
5086;DHT22;4715;51.660;7.082;2022-08-05T14:37:47;24.40;99.90
5086;DHT22;4715;51.660;7.082;2022-08-05T14:40:11;24.50;99.90
5086;DHT22;4715;51.660;7.082;2022-08-05T14:42:33;24.50;99.90
5086;DHT22;4715;51.660;7.082;2022-08-05T14:44:55;24.60;99.90
5086;DHT22;4715;51.660;7.082;2022-08-05T14:47:17;24.70;99.90
5086;DHT22;4715;51.660;7.082;2022-08-05T14:49:39;24.80;99.90
5086;DHT22;4715;51.660;7.082;2022-08-05T14:52:01;24.80;99.90
5086;DHT22;4715;51.660;7.082;2022-08-05T14:54:23;24.70;99.90
5086;DHT22;4715;51.660;7.082;2022-08-05T14:56:46;24.60;99.90
5086;DHT22;4715;51.660;7.082;2022-08-05T14:59:08;24.50;99.50
5086;DHT22;4715;51.660;7.082;2022-08-05T15:01:30;24.40;98.70
5086;DHT22;4715;51.660;7.082;2022-08-05T15:03:52;24.30;98.70
5086;DHT22;4715;51.660;7.082;2022-08-05T15:06:14;24.20;98.80
5086;DHT22;4715;51.660;7.082;2022-08-05T15:08:36;24.20;98.90
5086;DHT22;4715;51.660;7.082;2022-08-05T15:11:04;24.20;98.40
5086;DHT22;4715;51.660;7.082;2022-08-05T15:13:30;24.30;98.20
5086;DHT22;4715;51.660;7.082;2022-08-05T15:15:52;24.20;98.30
5086;DHT22;4715;51.660;7.082;2022-08-05T15:18:17;24.30;98.10
5086;DHT22;4715;51.660;7.082;2022-08-05T15:20:39;24.40;98.10
5086;DHT22;4715;51.660;7.082;2022-08-05T15:23:05;24.50;97.80
5086;DHT22;4715;51.660;7.082;2022-08-05T15:25:27;24.50;97.40
5086;DHT22;4715;51.660;7.082;2022-08-05T15:27:49;24.60;97.60
5086;DHT22;4715;51.660;7.082;2022-08-05T15:30:13;24.70;97.40
5086;DHT22;4715;51.660;7.082;2022-08-05T15:32:36;24.80;97.30
5086;DHT22;4715;51.660;7.082;2022-08-05T15:34:58;24.90;97.10
5086;DHT22;4715;51.660;7.082;2022-08-05T15:37:20;24.90;96.80
5086;DHT22;4715;51.660;7.082;2022-08-05T15:39:43;25.00;96.80
5086;DHT22;4715;51.660;7.082;2022-08-05T15:42:06;25.00;96.10
5086;DHT22;4715;51.660;7.082;2022-08-05T15:44:28;25.00;96.30
5086;DHT22;4715;51.660;7.082;2022-08-05T15:46:54;25.00;96.30
5086;DHT22;4715;51.660;7.082;2022-08-05T15:49:18;25.00;95.70